PWSweather.com
Personal Weather Stations
Station Observations
WISCHPK61
Green Bay Schmitt Park, Green Bay, WI 54311

Green Bay Schmitt ParkGreen Bay, WI 54311

Lat: 44.514277, Lon: -87.935067

Elevation: 735

Station Type: Acu Rite Pro Weather Center model 02032C

http://greenbayweathercam.com

High Low Average
Temperature 21.6°F-5.8°C 3.7°F-15.7°C 10.5°F-11.9°C
Dew Point 21.4°F-5.9°C -0.2°F-17.9°C 9.4°F-12.6°C
Winds 1.2 mph 1.9 kmh Calm Calm Calm SECalm SE
Wind Gusts 3.5 mph5.6 kmh -- --
Humidity 99% 70% 95%
Pressure 29.60 in1002.4 mb 29.47 in998.0 mb -
Precipitation 0.00 in0.0 mm - -
Hour Temp Dew Point Humidity Winds Wind Gusts Pressure Precip Precip Rate Daily Precip Total
12:00 AM 10.9°F-11.7°C 6.2°F-14.3°C 81% Calm Calm -- 29.60 in1002.4 mb - 0.00 in0.0 mm 0.00 in0.0 mm
01:00 AM 10.6°F-11.9°C 10.4°F-12.0°C 99% Calm Calm -- 29.59 in1002.0 mb - 0.00 in0.0 mm 0.00 in0.0 mm
02:00 AM 9.3°F-12.6°C 9.1°F-12.7°C 99% 1.2 mph NE1.9 kmh NE 3.5 mph5.6 kmh 29.58 in1001.7 mb - 0.00 in0.0 mm 0.00 in0.0 mm
03:00 AM 9.1°F-12.7°C 8.9°F-12.8°C 99% Calm Calm -- 29.58 in1001.7 mb - 0.00 in0.0 mm 0.00 in0.0 mm
04:00 AM 9.0°F-12.8°C 8.8°F-12.9°C 99% Calm Calm -- 29.57 in1001.4 mb - 0.00 in0.0 mm 0.00 in0.0 mm
05:00 AM 8.8°F-12.9°C 8.6°F-13.0°C 99% Calm Calm -- 29.56 in1001.0 mb - 0.00 in0.0 mm 0.00 in0.0 mm
06:00 AM 9.0°F-12.8°C 8.8°F-12.9°C 99% Calm Calm -- 29.56 in1001.0 mb - 0.00 in0.0 mm 0.00 in0.0 mm
07:00 AM 8.6°F-13.0°C 8.4°F-13.1°C 99% Calm Calm -- 29.56 in1001.0 mb - 0.00 in0.0 mm 0.00 in0.0 mm
08:00 AM 9.1°F-12.7°C 8.9°F-12.8°C 99% Calm Calm -- 29.56 in1001.0 mb - 0.00 in0.0 mm 0.00 in0.0 mm
09:00 AM 10.6°F-11.9°C 10.4°F-12.0°C 99% Calm Calm -- 29.55 in1000.7 mb - 0.00 in0.0 mm 0.00 in0.0 mm
10:00 AM 13.8°F-10.1°C 13.6°F-10.2°C 99% Calm Calm -- 29.54 in1000.3 mb - 0.00 in0.0 mm 0.00 in0.0 mm
11:00 AM 17.2°F-8.2°C 17.0°F-8.3°C 99% Calm Calm -- 29.54 in1000.3 mb - 0.00 in0.0 mm 0.00 in0.0 mm
12:00 PM 21.6°F-5.8°C 21.4°F-5.9°C 99% Calm Calm -- 29.53 in1000.0 mb - 0.00 in0.0 mm 0.00 in0.0 mm
01:00 PM 21.6°F-5.8°C 21.4°F-5.9°C 99% 1.2 mph SE1.9 kmh SE 1.2 mph1.9 kmh 29.51 in999.3 mb - 0.00 in0.0 mm 0.00 in0.0 mm
02:00 PM 18.3°F-7.6°C 18.0°F-7.8°C 99% Calm Calm -- 29.49 in998.6 mb - 0.00 in0.0 mm 0.00 in0.0 mm
03:00 PM 13.6°F-10.2°C 5.7°F-14.6°C 70% Calm Calm -- 29.48 in998.3 mb - 0.00 in0.0 mm 0.00 in0.0 mm
04:00 PM 11.1°F-11.6°C 10.9°F-11.7°C 99% 1.2 mph ESE1.9 kmh ESE 1.2 mph1.9 kmh 29.49 in998.6 mb - 0.00 in0.0 mm 0.00 in0.0 mm
05:00 PM 9.0°F-12.8°C 8.8°F-12.9°C 99% Calm Calm -- 29.49 in998.6 mb - 0.00 in0.0 mm 0.00 in0.0 mm
06:00 PM 7.5°F-13.6°C 4.7°F-15.2°C 88% Calm Calm -- 29.49 in998.6 mb - 0.00 in0.0 mm 0.00 in0.0 mm
07:00 PM 5.8°F-14.6°C 5.6°F-14.7°C 99% Calm Calm -- 29.49 in998.6 mb - 0.00 in0.0 mm 0.00 in0.0 mm
08:00 PM 4.8°F-15.1°C 2.3°F-16.5°C 89% Calm Calm -- 29.48 in998.3 mb - 0.00 in0.0 mm 0.00 in0.0 mm
09:00 PM 4.6°F-15.2°C -0.2°F-17.9°C 80% Calm Calm -- 29.49 in998.6 mb - 0.00 in0.0 mm 0.00 in0.0 mm
10:00 PM 3.7°F-15.7°C 3.5°F-15.8°C 99% Calm Calm -- 29.49 in998.6 mb - 0.00 in0.0 mm 0.00 in0.0 mm
11:00 PM 5.0°F-15.0°C 4.8°F-15.1°C 99% Calm Calm -- 29.47 in998.0 mb - 0.00 in0.0 mm 0.00 in0.0 mm